createdAt,value
2022-08-18T00:01:39.073Z,65.10
2022-08-18T00:04:35.142Z,65.20
2022-08-18T00:07:26.033Z,65.20
2022-08-18T00:10:07.570Z,65.20
2022-08-18T00:13:05.050Z,65.20
2022-08-18T00:15:52.030Z,65.30
2022-08-18T00:18:39.043Z,65.20
2022-08-18T00:21:27.034Z,65.20
2022-08-18T00:24:14.050Z,65.20
2022-08-18T00:27:02.008Z,65.20
2022-08-18T00:29:42.043Z,65.20
2022-08-18T00:32:40.049Z,65.30
2022-08-18T00:35:22.142Z,65.20
2022-08-18T00:38:24.800Z,65.20
2022-08-18T00:41:05.081Z,65.30
2022-08-18T00:43:55.048Z,65.20
2022-08-18T00:46:45.056Z,65.30
2022-08-18T00:49:32.083Z,65.30
2022-08-18T00:52:13.035Z,65.30
2022-08-18T00:55:02.101Z,65.40
2022-08-18T00:57:43.066Z,66.40
2022-08-18T01:00:30.250Z,65.50
2022-08-18T01:03:16.061Z,65.40
2022-08-18T01:06:18.098Z,65.40
2022-08-18T01:08:58.051Z,65.40
2022-08-18T01:11:46.060Z,65.40
2022-08-18T01:14:27.099Z,65.40
2022-08-18T01:17:33.059Z,65.40
2022-08-18T01:20:39.049Z,65.40
2022-08-18T01:23:21.904Z,65.40
2022-08-18T01:26:09.036Z,65.40
2022-08-18T01:28:56.085Z,65.50
2022-08-18T01:31:39.053Z,66.60
2022-08-18T01:34:22.472Z,65.60
2022-08-18T01:37:12.059Z,65.60
2022-08-18T01:41:21.349Z,65.60
2022-08-18T01:43:06.074Z,66.70
2022-08-18T01:45:47.532Z,65.80
2022-08-18T01:48:34.065Z,65.80
2022-08-18T01:51:38.050Z,65.80
2022-08-18T01:54:22.049Z,65.80
2022-08-18T01:57:13.338Z,65.80
2022-08-18T01:59:53.044Z,65.80
2022-08-18T02:02:40.053Z,65.80
2022-08-18T02:05:36.052Z,65.80
2022-08-18T02:08:23.059Z,65.80
2022-08-18T02:11:08.105Z,65.80
2022-08-18T02:13:55.041Z,65.80
2022-08-18T02:16:35.369Z,65.90
2022-08-18T02:19:22.054Z,65.80
2022-08-18T02:22:09.066Z,65.90
2022-08-18T02:25:03.057Z,65.90
2022-08-18T02:27:51.218Z,65.90
2022-08-18T02:30:31.114Z,65.90
2022-08-18T02:33:18.051Z,65.80
2022-08-18T02:36:01.106Z,65.80
2022-08-18T02:38:54.848Z,65.80
2022-08-18T02:41:45.070Z,65.80
2022-08-18T02:44:32.065Z,65.80
2022-08-18T02:47:12.155Z,65.80
2022-08-18T02:49:59.051Z,65.80
2022-08-18T02:52:48.057Z,66.70
2022-08-18T02:55:35.118Z,65.90
2022-08-18T02:58:16.063Z,65.80
2022-08-18T03:01:03.155Z,65.90
2022-08-18T03:03:44.066Z,66.70
2022-08-18T03:06:25.951Z,65.80
2022-08-18T03:09:13.053Z,65.90
2022-08-18T03:11:54.542Z,65.90
2022-08-18T03:14:42.066Z,65.80
2022-08-18T03:17:22.538Z,65.80
2022-08-18T03:20:09.270Z,65.80
2022-08-18T03:22:49.735Z,65.80
2022-08-18T03:25:37.048Z,65.80
2022-08-18T03:28:24.065Z,65.80
2022-08-18T03:31:04.122Z,65.80
2022-08-18T03:33:52.077Z,65.70
2022-08-18T03:36:36.868Z,65.70
2022-08-18T03:39:24.069Z,65.80
2022-08-18T03:42:11.070Z,65.70
2022-08-18T03:44:58.259Z,65.80
2022-08-18T03:47:39.073Z,65.80
2022-08-18T03:50:26.052Z,65.70
2022-08-18T03:53:06.158Z,65.80
2022-08-18T03:55:53.077Z,65.80
2022-08-18T03:58:33.101Z,65.80
2022-08-18T04:01:27.303Z,65.80
2022-08-18T04:04:17.062Z,66.70
2022-08-18T04:07:07.127Z,65.70
2022-08-18T04:09:48.076Z,65.80
2022-08-18T04:12:35.082Z,65.80
2022-08-18T04:15:16.133Z,65.80
2022-08-18T04:18:07.241Z,65.70
2022-08-18T04:20:59.483Z,65.80
2022-08-18T04:23:48.068Z,65.80
2022-08-18T04:26:42.082Z,65.70
2022-08-18T04:29:22.637Z,65.70
2022-08-18T04:32:10.086Z,65.70
2022-08-18T04:34:57.070Z,65.80
2022-08-18T04:37:48.897Z,65.80
2022-08-18T04:40:36.084Z,65.80
2022-08-18T04:43:23.195Z,65.70
2022-08-18T04:46:08.082Z,65.70
2022-08-18T04:48:48.582Z,65.70
2022-08-18T04:52:37.600Z,65.70
2022-08-18T04:54:45.078Z,66.60
2022-08-18T04:57:35.153Z,65.70
2022-08-18T05:00:22.217Z,65.70
2022-08-18T05:03:04.079Z,65.70
2022-08-18T05:05:51.133Z,65.80
2022-08-18T05:08:32.088Z,65.70
2022-08-18T05:11:12.611Z,65.70
2022-08-18T05:14:03.100Z,65.80
2022-08-18T05:16:48.856Z,65.60
2022-08-18T05:19:38.557Z,65.40
2022-08-18T05:22:31.884Z,65.40
2022-08-18T05:25:14.092Z,65.70
2022-08-18T05:27:54.583Z,65.70
2022-08-18T05:30:41.106Z,65.70
2022-08-18T05:33:21.609Z,65.70
2022-08-18T05:36:16.106Z,65.80
2022-08-18T05:39:12.562Z,65.70
2022-08-18T05:42:02.096Z,65.50
2022-08-18T05:44:55.708Z,65.20
2022-08-18T05:47:39.083Z,65.20
2022-08-18T05:50:20.958Z,66.10
2022-08-18T05:53:17.082Z,65.10
2022-08-18T05:56:22.984Z,65.10
2022-08-18T05:59:11.111Z,64.90
2022-08-18T06:02:05.081Z,64.90
2022-08-18T06:04:50.155Z,64.80
2022-08-18T06:08:03.109Z,64.70
2022-08-18T06:10:45.140Z,64.70
2022-08-18T06:13:32.079Z,64.50
2022-08-18T06:16:32.958Z,64.50
2022-08-18T06:19:36.086Z,64.50
2022-08-18T06:22:16.183Z,64.60
2022-08-18T06:25:10.116Z,64.40
2022-08-18T06:28:26.116Z,64.20
2022-08-18T06:31:29.265Z,64.00
2022-08-18T06:34:40.081Z,63.70
2022-08-18T06:38:22.096Z,63.60
2022-08-18T06:41:40.732Z,63.40
2022-08-18T06:44:51.106Z,63.30
2022-08-18T06:47:42.372Z,63.10
2022-08-18T06:50:50.085Z,62.90
2022-08-18T06:54:04.091Z,62.90
2022-08-18T06:56:56.102Z,62.80
2022-08-18T06:59:39.654Z,62.50
2022-08-18T07:02:32.114Z,62.30
2022-08-18T07:05:47.086Z,62.20
2022-08-18T07:08:40.151Z,62.10
2022-08-18T07:11:40.106Z,61.90
2022-08-18T07:14:23.493Z,61.60
2022-08-18T07:17:22.096Z,61.50
2022-08-18T07:20:06.820Z,61.30
2022-08-18T07:23:17.102Z,60.70
2022-08-18T07:26:10.251Z,60.10
2022-08-18T07:28:54.105Z,59.80
2022-08-18T07:31:49.299Z,58.10
2022-08-18T07:34:33.111Z,57.00
2022-08-18T07:37:28.985Z,56.00
2022-08-18T07:40:19.184Z,55.50
2022-08-18T07:43:08.399Z,55.10
2022-08-18T07:45:58.105Z,55.10
2022-08-18T07:48:45.103Z,55.30
2022-08-18T07:51:30.414Z,55.70
2022-08-18T07:54:49.856Z,55.90
2022-08-18T07:58:06.154Z,56.30
2022-08-18T08:01:06.101Z,56.50
2022-08-18T08:03:52.164Z,56.40
2022-08-18T08:07:12.861Z,55.10
2022-08-18T08:09:53.154Z,54.40
2022-08-18T08:13:09.941Z,52.90
2022-08-18T08:16:07.150Z,52.20
2022-08-18T08:19:12.255Z,52.00
2022-08-18T08:22:04.180Z,52.30
2022-08-18T08:25:45.143Z,52.00
2022-08-18T08:29:09.114Z,52.90
2022-08-18T08:32:12.199Z,52.80
2022-08-18T08:34:56.115Z,53.30
2022-08-18T08:38:39.566Z,52.60
2022-08-18T08:41:14.123Z,52.20
2022-08-18T08:44:13.429Z,51.70
2022-08-18T08:47:15.113Z,51.30
2022-08-18T08:50:13.477Z,50.70
2022-08-18T08:53:00.127Z,50.40
2022-08-18T08:56:09.125Z,50.80
2022-08-18T08:59:05.197Z,50.90
2022-08-18T09:02:04.182Z,51.00
2022-08-18T09:05:24.239Z,50.10
2022-08-18T09:08:18.132Z,49.60
2022-08-18T09:11:25.143Z,49.60
2022-08-18T09:14:21.172Z,49.90
2022-08-18T09:17:24.121Z,50.20
2022-08-18T09:20:34.338Z,50.80
2022-08-18T09:23:27.100Z,50.00
2022-08-18T09:26:37.274Z,49.20
2022-08-18T09:29:46.114Z,49.20
2022-08-18T09:32:26.227Z,49.40
2022-08-18T09:36:02.128Z,49.80
2022-08-18T09:39:13.084Z,50.10
2022-08-18T09:42:13.119Z,50.10
2022-08-18T09:44:53.481Z,50.40
2022-08-18T09:47:40.139Z,50.60
2022-08-18T09:50:38.591Z,50.70
2022-08-18T09:53:55.132Z,50.90
2022-08-18T09:56:55.717Z,51.10
2022-08-18T09:59:45.144Z,51.00
2022-08-18T10:02:38.242Z,50.90
2022-08-18T10:05:26.140Z,50.90
2022-08-18T10:08:06.243Z,50.00
2022-08-18T10:14:18.352Z,49.30
2022-08-18T10:17:31.147Z,49.50
2022-08-18T10:20:41.217Z,49.40
2022-08-18T10:24:14.644Z,49.20
2022-08-18T10:27:06.457Z,49.50
2022-08-18T10:29:59.191Z,49.50
2022-08-18T10:32:52.197Z,49.60
2022-08-18T10:35:43.138Z,49.60
2022-08-18T10:41:52.501Z,49.90
2022-08-18T10:44:49.147Z,50.00
2022-08-18T10:47:34.065Z,50.00
2022-08-18T10:50:29.156Z,50.20
2022-08-18T10:53:44.114Z,50.30
2022-08-18T10:56:48.037Z,50.30
2022-08-18T10:59:52.192Z,50.40
2022-08-18T11:03:01.836Z,50.40
2022-08-18T11:05:42.153Z,50.40
2022-08-18T11:08:31.768Z,50.40
2022-08-18T11:11:37.966Z,50.20
2022-08-18T11:14:46.139Z,50.00
2022-08-18T11:17:40.666Z,49.90
2022-08-18T11:20:34.149Z,49.80
2022-08-18T11:23:28.167Z,49.50
2022-08-18T11:26:30.139Z,49.10
2022-08-18T11:29:28.156Z,49.00
2022-08-18T11:32:34.794Z,49.00
2022-08-18T11:35:27.512Z,49.00
2022-08-18T11:38:12.442Z,49.00
2022-08-18T11:41:17.377Z,49.00
2022-08-18T11:44:03.172Z,49.00
2022-08-18T11:46:51.975Z,48.90
2022-08-18T11:49:40.157Z,48.90
2022-08-18T11:52:30.940Z,48.90
2022-08-18T11:55:42.693Z,49.00
2022-08-18T11:58:55.157Z,49.10
2022-08-18T12:02:01.163Z,49.20
2022-08-18T12:04:50.534Z,49.30
2022-08-18T12:07:42.184Z,49.40
2022-08-18T12:10:37.735Z,49.40
2022-08-18T12:13:24.142Z,49.50
2022-08-18T12:16:19.612Z,49.70
2022-08-18T12:18:59.159Z,49.80
2022-08-18T12:22:10.970Z,49.70
2022-08-18T12:24:55.149Z,49.80
2022-08-18T12:27:43.510Z,49.80
2022-08-18T12:30:25.158Z,49.90
2022-08-18T12:33:13.741Z,49.90
2022-08-18T12:35:53.172Z,49.90
2022-08-18T12:38:41.176Z,49.90
2022-08-18T12:41:24.041Z,49.90
2022-08-18T12:44:13.400Z,49.90
2022-08-18T12:47:00.185Z,49.50
2022-08-18T12:49:47.243Z,49.40
2022-08-18T12:52:30.185Z,49.10
2022-08-18T12:55:21.997Z,49.10
2022-08-18T12:58:10.173Z,49.10
2022-08-18T13:00:57.354Z,49.30
2022-08-18T13:03:38.178Z,49.30
2022-08-18T13:06:30.242Z,49.40
2022-08-18T13:09:16.202Z,49.50
2022-08-18T13:12:19.370Z,49.70
2022-08-18T13:14:59.268Z,49.90
2022-08-18T13:17:46.176Z,49.80
2022-08-18T13:20:28.238Z,50.00
2022-08-18T13:23:24.041Z,50.00
2022-08-18T13:26:08.750Z,50.10
2022-08-18T13:28:56.993Z,50.20
2022-08-18T13:31:39.257Z,50.30
2022-08-18T13:34:26.192Z,50.40
2022-08-18T13:37:13.197Z,50.50
2022-08-18T13:40:01.994Z,50.60
2022-08-18T13:42:59.263Z,50.70
2022-08-18T13:45:42.710Z,50.80
2022-08-18T13:48:31.208Z,50.90
2022-08-18T13:51:24.162Z,50.90
2022-08-18T13:54:30.055Z,52.10
2022-08-18T13:57:19.695Z,51.10
2022-08-18T14:00:02.267Z,51.10
2022-08-18T14:02:49.184Z,51.10
2022-08-18T14:05:36.132Z,51.10
2022-08-18T14:08:38.185Z,51.10
2022-08-18T14:11:20.259Z,51.10
2022-08-18T14:14:08.200Z,51.10
2022-08-18T14:16:48.240Z,51.00
2022-08-18T14:19:54.187Z,52.00
2022-08-18T14:23:21.999Z,51.00
2022-08-18T14:26:36.199Z,51.00
2022-08-18T14:29:46.829Z,51.10
2022-08-18T14:32:29.890Z,51.10
2022-08-18T14:35:32.965Z,51.20
2022-08-18T14:38:19.256Z,51.20
2022-08-18T14:41:10.195Z,51.40
2022-08-18T14:44:12.149Z,51.40
2022-08-18T14:46:59.186Z,51.40
2022-08-18T14:49:42.940Z,51.40
2022-08-18T14:52:35.196Z,51.50
2022-08-18T14:55:17.252Z,51.60
2022-08-18T14:58:04.201Z,51.50
2022-08-18T15:00:53.423Z,51.50
2022-08-18T15:03:43.173Z,51.50
2022-08-18T15:06:27.269Z,51.50
2022-08-18T15:09:14.216Z,51.50
2022-08-18T15:11:56.633Z,51.60
2022-08-18T15:14:44.171Z,51.50
2022-08-18T15:17:32.273Z,51.50
2022-08-18T15:20:29.466Z,51.60
2022-08-18T15:23:35.198Z,51.70
2022-08-18T15:26:28.168Z,51.60
2022-08-18T15:29:09.720Z,51.60
2022-08-18T15:32:02.192Z,51.80
2022-08-18T15:34:52.165Z,51.90
2022-08-18T15:37:44.185Z,51.90
2022-08-18T15:40:31.337Z,52.10
2022-08-18T15:43:25.407Z,52.10
2022-08-18T15:46:16.891Z,52.20
2022-08-18T15:49:05.385Z,52.50
2022-08-18T15:51:52.568Z,52.60
2022-08-18T15:54:42.253Z,52.80
2022-08-18T15:57:38.742Z,52.80
2022-08-18T16:00:27.173Z,53.60
2022-08-18T16:03:14.315Z,53.70
2022-08-18T16:06:02.192Z,53.20
2022-08-18T16:08:42.506Z,53.10
2022-08-18T16:11:29.923Z,53.10
2022-08-18T16:14:10.278Z,53.00
2022-08-18T16:16:57.198Z,53.00
2022-08-18T16:19:44.203Z,53.00
2022-08-18T16:22:31.208Z,52.90
2022-08-18T16:25:20.220Z,53.00
2022-08-18T16:28:07.373Z,52.90
2022-08-18T16:30:48.257Z,52.90
2022-08-18T16:33:35.197Z,52.90
2022-08-18T16:36:17.908Z,54.00
2022-08-18T16:39:04.206Z,53.00
2022-08-18T16:41:46.492Z,53.00
2022-08-18T16:44:36.234Z,53.00
2022-08-18T16:47:24.231Z,53.00
2022-08-18T16:50:22.201Z,53.00
2022-08-18T16:53:11.189Z,53.10
2022-08-18T16:55:51.696Z,53.10
2022-08-18T16:58:56.254Z,53.10
2022-08-18T17:01:56.536Z,53.10
2022-08-18T17:04:45.221Z,53.10
2022-08-18T17:07:32.273Z,53.10
2022-08-18T17:10:13.227Z,53.20
2022-08-18T17:12:53.760Z,53.10
2022-08-18T17:15:40.214Z,53.50
2022-08-18T17:18:20.725Z,54.70
2022-08-18T17:21:07.234Z,56.60
2022-08-18T17:23:48.461Z,57.30
2022-08-18T17:27:12.258Z,57.80
2022-08-18T17:30:23.234Z,58.60
2022-08-18T17:33:16.237Z,59.10
2022-08-18T17:36:06.759Z,59.50
2022-08-18T17:38:58.237Z,60.20
2022-08-18T17:41:58.686Z,60.50
2022-08-18T17:44:52.250Z,60.90
2022-08-18T17:47:56.702Z,61.10
2022-08-18T17:51:11.234Z,61.40
2022-08-18T17:53:51.774Z,61.50
2022-08-18T17:56:54.241Z,61.90
2022-08-18T18:00:05.857Z,62.50
2022-08-18T18:02:47.221Z,62.20
2022-08-18T18:05:36.750Z,62.10
2022-08-18T18:08:24.228Z,61.40
2022-08-18T18:11:25.226Z,61.90
2022-08-18T18:14:50.249Z,62.30
2022-08-18T18:17:40.121Z,62.30
2022-08-18T18:20:31.270Z,62.70
2022-08-18T18:23:18.115Z,62.70
2022-08-18T18:26:05.243Z,62.70
2022-08-18T18:28:59.224Z,62.70
2022-08-18T18:31:50.309Z,62.40
2022-08-18T18:34:38.229Z,61.50
2022-08-18T18:37:39.250Z,63.20
2022-08-18T18:40:54.234Z,61.70
2022-08-18T18:43:51.192Z,60.20
2022-08-18T18:46:44.248Z,59.50
2022-08-18T18:49:35.238Z,59.80
2022-08-18T18:52:59.239Z,59.30
2022-08-18T18:56:00.229Z,60.20
2022-08-18T18:59:20.238Z,59.90
2022-08-18T19:02:13.629Z,60.10
2022-08-18T19:05:25.238Z,59.60
2022-08-18T19:08:43.416Z,59.80
2022-08-18T19:11:29.798Z,59.70
2022-08-18T19:14:31.246Z,60.50
2022-08-18T19:17:26.519Z,60.30
2022-08-18T19:20:26.247Z,59.40
2022-08-18T19:23:34.011Z,59.70
2022-08-18T19:26:35.270Z,59.70
2022-08-18T19:29:20.455Z,59.30
2022-08-18T19:32:33.240Z,59.00
2022-08-18T19:35:15.294Z,58.90
2022-08-18T19:38:16.276Z,58.80
2022-08-18T19:41:12.233Z,58.70
2022-08-18T19:44:31.254Z,58.60
2022-08-18T19:47:28.007Z,58.50
2022-08-18T19:50:39.304Z,58.20
2022-08-18T19:53:31.277Z,58.10
2022-08-18T19:56:53.302Z,58.00
2022-08-18T19:59:55.253Z,58.00
2022-08-18T20:02:51.643Z,58.00
2022-08-18T20:05:59.281Z,57.80
2022-08-18T20:09:15.329Z,58.10
2022-08-18T20:12:14.300Z,58.10
2022-08-18T20:15:16.662Z,58.30
2022-08-18T20:18:36.383Z,58.10
2022-08-18T20:21:22.330Z,57.80
2022-08-18T20:24:25.277Z,58.00
2022-08-18T20:27:35.869Z,58.40
2022-08-18T20:30:26.261Z,58.20
2022-08-18T20:33:38.268Z,58.20
2022-08-18T20:36:43.276Z,58.00
2022-08-18T20:39:47.418Z,59.10
2022-08-18T20:42:41.277Z,58.00
2022-08-18T20:45:45.691Z,59.00
2022-08-18T20:49:23.293Z,58.10
2022-08-18T20:52:18.343Z,58.00
2022-08-18T20:55:35.284Z,58.20
2022-08-18T20:58:25.309Z,58.30
2022-08-18T21:01:13.305Z,58.60
2022-08-18T21:03:53.405Z,58.60
2022-08-18T21:06:51.261Z,58.60
2022-08-18T21:09:31.411Z,58.60
2022-08-18T21:12:18.255Z,58.80
2022-08-18T21:15:00.335Z,58.90
2022-08-18T21:17:47.260Z,58.90
2022-08-18T21:20:31.366Z,59.00
2022-08-18T21:23:20.275Z,59.20
2022-08-18T21:26:06.301Z,59.20
2022-08-18T21:28:58.550Z,59.30
2022-08-18T21:31:45.463Z,59.60
2022-08-18T21:34:46.283Z,59.40
2022-08-18T21:37:26.426Z,59.60
2022-08-18T21:40:14.337Z,59.60
2022-08-18T21:42:59.385Z,59.70
2022-08-18T21:45:56.114Z,59.60
2022-08-18T21:48:38.037Z,59.80
2022-08-18T21:51:31.280Z,59.80
2022-08-18T21:54:12.474Z,59.90
2022-08-18T21:57:32.269Z,60.00
2022-08-18T22:00:23.861Z,60.10
2022-08-18T22:03:34.267Z,60.40
2022-08-18T22:06:36.403Z,60.50
2022-08-18T22:09:46.275Z,60.70
2022-08-18T22:12:45.292Z,60.70
2022-08-18T22:15:32.272Z,60.90
2022-08-18T22:18:23.326Z,61.00
2022-08-18T22:21:12.189Z,61.10
2022-08-18T22:24:12.148Z,62.10
2022-08-18T22:27:19.285Z,61.10
2022-08-18T22:30:05.438Z,61.20
2022-08-18T22:32:53.503Z,61.20
2022-08-18T22:35:34.326Z,61.20
2022-08-18T22:38:22.256Z,61.30
2022-08-18T22:41:11.273Z,61.30
2022-08-18T22:44:05.281Z,61.30
2022-08-18T22:46:52.816Z,61.50
2022-08-18T22:49:33.276Z,61.40
2022-08-18T22:52:36.341Z,61.40
2022-08-18T22:55:21.708Z,61.40
2022-08-18T22:58:03.805Z,61.50
2022-08-18T23:00:52.284Z,61.50
2022-08-18T23:03:47.371Z,61.60
2022-08-18T23:06:27.292Z,61.70
2022-08-18T23:09:14.282Z,61.60
2022-08-18T23:12:01.290Z,61.70
2022-08-18T23:14:45.720Z,61.80
2022-08-18T23:17:33.291Z,61.90
2022-08-18T23:20:26.607Z,61.80
2022-08-18T23:23:06.274Z,61.80
2022-08-18T23:25:53.421Z,61.80
2022-08-18T23:28:41.283Z,61.80
2022-08-18T23:31:21.368Z,61.80
2022-08-18T23:34:08.283Z,61.80
2022-08-18T23:36:48.946Z,62.10
2022-08-18T23:39:37.333Z,62.90
2022-08-18T23:42:17.334Z,62.00
2022-08-18T23:45:09.293Z,62.00
2022-08-18T23:47:57.622Z,62.00
2022-08-18T23:50:49.431Z,62.00
2022-08-18T23:53:29.291Z,62.10
2022-08-18T23:56:16.442Z,62.30
2022-08-18T23:58:59.291Z,62.20
